createdAt,value
2022-10-18T00:01:30.439Z,78.02
2022-10-18T00:04:00.560Z,78.08
2022-10-18T00:06:30.937Z,77.97
2022-10-18T00:09:01.145Z,78.00
2022-10-18T00:11:31.336Z,78.12
2022-10-18T00:14:01.860Z,77.88
2022-10-18T00:16:32.050Z,78.06
2022-10-18T00:19:02.167Z,78.15
2022-10-18T00:21:32.573Z,77.96
2022-10-18T00:24:03.106Z,78.14
2022-10-18T00:26:33.335Z,78.06
2022-10-18T00:29:06.161Z,78.04
2022-10-18T00:31:38.587Z,77.95
2022-10-18T00:34:13.205Z,78.11
2022-10-18T00:36:44.291Z,77.72
2022-10-18T00:39:22.141Z,77.98
2022-10-18T00:41:52.667Z,77.72
2022-10-18T00:44:25.585Z,77.82
2022-10-18T00:47:08.773Z,78.00
2022-10-18T00:49:52.789Z,77.94
2022-10-18T00:52:29.130Z,77.76
2022-10-18T00:54:59.973Z,77.78
2022-10-18T00:57:30.251Z,77.55
2022-10-18T01:00:00.466Z,77.76
2022-10-18T01:02:32.644Z,77.95
2022-10-18T01:05:03.234Z,78.00
2022-10-18T01:07:42.473Z,78.15
2022-10-18T01:10:25.828Z,78.02
2022-10-18T01:13:25.683Z,78.36
2022-10-18T01:16:10.433Z,77.98
2022-10-18T01:18:49.285Z,78.37
2022-10-18T01:21:45.172Z,78.12
2022-10-18T01:24:45.359Z,78.23
2022-10-18T01:27:30.509Z,78.21
2022-10-18T01:30:19.181Z,78.02
2022-10-18T01:32:53.826Z,78.24
2022-10-18T01:35:34.044Z,78.39
2022-10-18T01:38:09.626Z,78.37
2022-10-18T01:40:42.455Z,78.32
2022-10-18T01:43:14.878Z,78.29
2022-10-18T01:45:45.523Z,78.20
2022-10-18T01:48:17.574Z,78.33
2022-10-18T01:50:47.969Z,78.32
2022-10-18T01:53:30.852Z,78.33
2022-10-18T01:56:18.906Z,78.54
2022-10-18T01:58:57.037Z,78.35
2022-10-18T02:01:42.100Z,78.24
2022-10-18T02:04:30.718Z,78.65
2022-10-18T02:07:23.058Z,78.42
2022-10-18T02:10:10.967Z,78.27
2022-10-18T02:12:44.735Z,78.58
2022-10-18T02:15:19.836Z,78.48
2022-10-18T02:17:50.770Z,78.38
2022-10-18T02:20:25.049Z,78.73
2022-10-18T02:22:58.678Z,78.58
2022-10-18T02:25:31.844Z,78.67
2022-10-18T02:28:03.658Z,78.79
2022-10-18T02:30:58.393Z,78.79
2022-10-18T02:33:44.424Z,78.56
2022-10-18T02:36:36.554Z,78.73
2022-10-18T02:39:18.063Z,78.85
2022-10-18T02:41:48.363Z,78.94
2022-10-18T02:44:18.569Z,78.93
2022-10-18T02:46:48.902Z,79.12
2022-10-18T02:49:19.058Z,78.95
2022-10-18T02:51:49.060Z,78.91
2022-10-18T02:54:19.281Z,78.87
2022-10-18T02:56:50.101Z,78.98
2022-10-18T02:59:21.879Z,79.00
2022-10-18T03:01:51.941Z,79.30
2022-10-18T03:04:22.227Z,79.18
2022-10-18T03:06:52.397Z,80.44
2022-10-18T03:09:22.561Z,80.53
2022-10-18T03:11:52.740Z,80.92
2022-10-18T03:14:22.876Z,81.51
2022-10-18T03:16:53.118Z,81.20
2022-10-18T03:19:23.458Z,80.74
2022-10-18T03:21:53.642Z,80.89
2022-10-18T03:24:23.834Z,81.09
2022-10-18T03:26:53.942Z,81.22
2022-10-18T03:29:24.012Z,81.82
2022-10-18T03:31:54.210Z,81.72
2022-10-18T03:34:24.266Z,82.18
2022-10-18T03:36:55.182Z,82.34
2022-10-18T03:39:25.331Z,82.27
2022-10-18T03:41:55.522Z,81.95
2022-10-18T03:44:25.700Z,82.04
2022-10-18T03:46:55.764Z,82.38
2022-10-18T03:49:26.018Z,82.08
2022-10-18T03:51:56.210Z,81.94
2022-10-18T03:54:28.833Z,82.14
2022-10-18T03:56:59.137Z,82.26
2022-10-18T03:59:29.264Z,82.79
2022-10-18T04:01:59.605Z,82.41
2022-10-18T04:04:29.929Z,82.28
2022-10-18T04:07:00.129Z,82.22
2022-10-18T04:09:30.313Z,82.18
2022-10-18T04:12:00.522Z,82.28
2022-10-18T04:14:30.658Z,82.16
2022-10-18T04:17:00.842Z,82.10
2022-10-18T04:19:31.009Z,82.37
2022-10-18T04:22:01.233Z,82.69
2022-10-18T04:24:31.385Z,82.87
2022-10-18T04:27:01.513Z,83.00
2022-10-18T04:29:31.716Z,82.91
2022-10-18T04:32:02.297Z,82.94
2022-10-18T04:34:32.479Z,82.93
2022-10-18T04:37:02.632Z,82.90
2022-10-18T04:39:32.722Z,83.07
2022-10-18T04:42:03.091Z,83.07
2022-10-18T04:44:33.356Z,83.39
2022-10-18T04:47:03.649Z,83.11
2022-10-18T04:49:33.827Z,83.10
2022-10-18T04:52:04.361Z,83.01
2022-10-18T04:54:37.316Z,83.03
2022-10-18T04:57:07.523Z,83.43
2022-10-18T04:59:37.697Z,83.02
2022-10-18T05:02:07.932Z,83.42
2022-10-18T05:04:38.679Z,83.53
2022-10-18T05:07:08.946Z,83.61
2022-10-18T05:09:39.150Z,83.54
2022-10-18T05:12:09.478Z,83.74
2022-10-18T05:14:39.847Z,83.66
2022-10-18T05:17:09.970Z,83.25
2022-10-18T05:19:40.230Z,83.55
2022-10-18T05:22:10.496Z,83.37
2022-10-18T05:24:40.623Z,83.96
2022-10-18T05:27:11.297Z,83.88
2022-10-18T05:29:41.572Z,83.83
2022-10-18T05:32:13.469Z,84.11
2022-10-18T05:34:43.842Z,84.07
2022-10-18T05:37:14.016Z,83.90
2022-10-18T05:39:44.098Z,84.27
2022-10-18T05:42:14.499Z,84.00
2022-10-18T05:44:44.598Z,84.22
2022-10-18T05:47:14.842Z,84.12
2022-10-18T05:49:44.998Z,84.23
2022-10-18T05:52:15.917Z,84.28
2022-10-18T05:54:46.045Z,84.36
2022-10-18T05:57:16.225Z,84.49
2022-10-18T05:59:46.499Z,84.70
2022-10-18T06:02:16.710Z,84.51
2022-10-18T06:04:46.990Z,84.47
2022-10-18T06:07:17.273Z,84.77
2022-10-18T06:09:47.437Z,84.82
2022-10-18T06:12:17.582Z,84.75
2022-10-18T06:14:49.551Z,84.95
2022-10-18T06:17:19.701Z,85.00
2022-10-18T06:19:50.094Z,84.99
2022-10-18T06:22:20.581Z,84.86
2022-10-18T06:24:55.065Z,85.15
2022-10-18T06:27:27.380Z,85.18
2022-10-18T06:29:58.132Z,85.14
2022-10-18T06:32:28.264Z,84.93
2022-10-18T06:34:58.434Z,84.93
2022-10-18T06:37:31.623Z,85.15
2022-10-18T06:40:01.925Z,85.02
2022-10-18T06:42:32.349Z,84.63
2022-10-18T06:45:03.470Z,84.74
2022-10-18T06:47:33.620Z,84.79
2022-10-18T06:50:03.957Z,84.81
2022-10-18T06:52:34.455Z,84.76
2022-10-18T06:55:08.969Z,84.77
2022-10-18T06:57:39.303Z,84.84
2022-10-18T07:00:09.892Z,84.77
2022-10-18T07:02:41.545Z,85.11
2022-10-18T07:05:11.763Z,84.88
2022-10-18T07:07:42.721Z,84.61
2022-10-18T07:10:13.256Z,84.65
2022-10-18T07:12:43.525Z,84.76
2022-10-18T07:15:13.782Z,85.00
2022-10-18T07:17:48.120Z,84.95
2022-10-18T07:20:18.244Z,85.03
2022-10-18T07:22:48.390Z,84.97
2022-10-18T07:25:18.681Z,84.79
2022-10-18T07:27:48.825Z,84.93
2022-10-18T07:30:19.026Z,84.85
2022-10-18T07:32:51.755Z,84.77
2022-10-18T07:35:21.834Z,84.66
2022-10-18T07:37:52.908Z,84.88
2022-10-18T07:40:23.028Z,84.79
2022-10-18T07:42:53.202Z,84.81
2022-10-18T07:45:23.300Z,84.51
2022-10-18T07:47:57.405Z,84.46
2022-10-18T07:50:28.070Z,84.58
2022-10-18T07:52:58.191Z,84.48
2022-10-18T07:55:28.395Z,84.42
2022-10-18T07:58:00.594Z,84.68
2022-10-18T08:00:30.743Z,84.58
2022-10-18T08:03:00.878Z,84.40
2022-10-18T08:08:08.114Z,84.50
2022-10-18T08:10:38.509Z,84.23
2022-10-18T08:13:08.617Z,84.05
2022-10-18T08:15:38.957Z,84.27
2022-10-18T08:18:09.332Z,84.26
2022-10-18T08:20:47.002Z,84.06
2022-10-18T08:23:17.178Z,84.06
2022-10-18T08:25:47.332Z,84.35
2022-10-18T08:28:19.493Z,84.28
2022-10-18T08:30:49.626Z,84.28
2022-10-18T08:33:20.271Z,84.16
2022-10-18T08:36:01.321Z,84.12
2022-10-18T08:38:32.528Z,83.99
2022-10-18T08:41:23.941Z,84.30
2022-10-18T08:44:18.994Z,83.97
2022-10-18T08:46:52.375Z,83.93
2022-10-18T08:49:44.214Z,83.97
2022-10-18T08:52:25.239Z,83.94
2022-10-18T08:55:20.550Z,84.00
2022-10-18T08:57:51.686Z,83.87
2022-10-18T09:00:24.711Z,83.68
2022-10-18T09:03:13.156Z,83.74
2022-10-18T09:05:56.102Z,83.45
2022-10-18T09:08:58.396Z,83.06
2022-10-18T09:11:49.874Z,82.84
2022-10-18T09:14:44.546Z,83.46
2022-10-18T09:17:43.614Z,82.77
2022-10-18T09:20:22.435Z,82.61
2022-10-18T09:22:57.521Z,83.03
2022-10-18T09:25:44.599Z,82.90
2022-10-18T09:28:23.842Z,82.65
2022-10-18T09:30:59.931Z,82.61
2022-10-18T09:33:41.935Z,82.77
2022-10-18T09:36:20.599Z,82.98
2022-10-18T09:39:02.489Z,82.38
2022-10-18T09:41:38.278Z,82.35
2022-10-18T09:44:33.662Z,82.06
2022-10-18T09:47:17.158Z,81.42
2022-10-18T09:49:56.310Z,81.88
2022-10-18T09:52:44.014Z,81.39
2022-10-18T09:55:22.852Z,81.59
2022-10-18T09:57:58.788Z,81.80
2022-10-18T10:00:35.305Z,81.50
2022-10-18T10:03:14.855Z,80.97
2022-10-18T10:05:45.895Z,80.97
2022-10-18T10:08:16.101Z,81.08
2022-10-18T10:10:48.299Z,80.64
2022-10-18T10:13:24.604Z,80.68
2022-10-18T10:16:00.977Z,80.53
2022-10-18T10:18:37.081Z,80.32
2022-10-18T10:21:14.887Z,79.58
2022-10-18T10:23:51.520Z,79.74
2022-10-18T10:26:29.123Z,79.92
2022-10-18T10:29:00.222Z,80.13
2022-10-18T10:31:32.016Z,79.77
2022-10-18T10:34:12.642Z,79.69
2022-10-18T10:36:54.266Z,79.22
2022-10-18T10:39:24.984Z,79.48
2022-10-18T10:41:58.825Z,78.96
2022-10-18T10:44:32.611Z,79.33
2022-10-18T10:47:03.841Z,79.30
2022-10-18T10:49:47.315Z,78.29
2022-10-18T10:52:27.425Z,78.81
2022-10-18T10:55:11.015Z,78.64
2022-10-18T10:57:50.181Z,77.84
2022-10-18T11:00:43.484Z,75.78
2022-10-18T11:03:30.957Z,77.10
2022-10-18T11:06:02.165Z,77.40
2022-10-18T11:08:39.897Z,76.97
2022-10-18T11:11:30.841Z,75.73
2022-10-18T11:14:29.667Z,74.84
2022-10-18T11:17:31.588Z,73.41
2022-10-18T11:20:09.751Z,75.78
2022-10-18T11:22:57.345Z,75.55
2022-10-18T11:26:06.360Z,75.23
2022-10-18T11:28:36.517Z,76.57
2022-10-18T11:31:22.804Z,75.45
2022-10-18T11:34:37.856Z,74.78
2022-10-18T11:37:38.554Z,74.51
2022-10-18T11:40:35.823Z,75.12
2022-10-18T11:43:57.083Z,75.46
2022-10-18T11:46:52.736Z,74.62
2022-10-18T11:49:47.412Z,74.63
2022-10-18T11:52:31.392Z,74.81
2022-10-18T11:55:30.398Z,74.56
2022-10-18T11:58:09.165Z,74.72
2022-10-18T12:00:55.156Z,74.87
2022-10-18T12:03:56.508Z,73.26
2022-10-18T12:06:32.854Z,74.08
2022-10-18T12:09:07.499Z,71.75
2022-10-18T12:11:47.438Z,73.55
2022-10-18T12:14:27.319Z,72.82
2022-10-18T12:17:38.966Z,73.53
2022-10-18T12:19:56.592Z,73.72
2022-10-18T12:22:37.153Z,73.53
2022-10-18T12:25:13.891Z,73.23
2022-10-18T12:27:57.003Z,71.95
2022-10-18T12:31:05.936Z,72.42
2022-10-18T12:33:42.825Z,72.68
2022-10-18T12:36:13.069Z,72.92
2022-10-18T12:38:46.103Z,73.21
2022-10-18T12:41:26.485Z,71.65
2022-10-18T12:44:05.092Z,72.17
2022-10-18T12:46:46.134Z,71.67
2022-10-18T12:49:24.514Z,72.52
2022-10-18T12:52:01.045Z,72.57
2022-10-18T12:54:37.489Z,71.87
2022-10-18T12:57:22.038Z,70.03
2022-10-18T12:59:52.183Z,72.24
2022-10-18T13:02:25.328Z,72.31
2022-10-18T13:07:32.446Z,71.89
2022-10-18T13:10:12.593Z,69.10
2022-10-18T13:12:48.813Z,69.18
2022-10-18T13:15:44.866Z,69.10
2022-10-18T13:18:31.457Z,68.69
2022-10-18T13:21:01.640Z,70.82
2022-10-18T13:24:00.048Z,68.80
2022-10-18T13:26:42.024Z,70.84
2022-10-18T13:29:36.743Z,70.67
2022-10-18T13:32:22.039Z,69.87
2022-10-18T13:34:52.266Z,70.66
2022-10-18T13:37:25.580Z,70.85
2022-10-18T13:40:25.546Z,69.08
2022-10-18T13:42:58.374Z,70.58
2022-10-18T13:45:31.662Z,70.71
2022-10-18T13:48:29.729Z,69.55
2022-10-18T13:51:34.869Z,69.17
2022-10-18T13:54:38.704Z,70.10
2022-10-18T13:57:19.444Z,70.24
2022-10-18T14:00:04.186Z,70.86
2022-10-18T14:03:00.226Z,70.67
2022-10-18T14:05:52.964Z,70.89
2022-10-18T14:08:40.533Z,70.73
2022-10-18T14:11:16.420Z,70.49
2022-10-18T14:13:52.096Z,70.85
2022-10-18T14:16:28.703Z,71.18
2022-10-18T14:19:09.289Z,71.35
2022-10-18T14:21:43.541Z,71.42
2022-10-18T14:24:20.695Z,71.39
2022-10-18T14:27:23.239Z,70.68
2022-10-18T14:30:19.556Z,70.64
2022-10-18T14:32:53.888Z,71.22
2022-10-18T14:35:32.529Z,71.35
2022-10-18T14:38:03.745Z,71.00
2022-10-18T14:40:39.622Z,70.81
2022-10-18T14:43:09.662Z,71.09
2022-10-18T14:45:41.462Z,71.20
2022-10-18T14:48:17.453Z,71.06
2022-10-18T14:50:59.327Z,71.20
2022-10-18T14:53:36.418Z,71.33
2022-10-18T14:56:08.419Z,71.34
2022-10-18T14:58:42.266Z,71.20
2022-10-18T15:01:24.652Z,70.91
2022-10-18T15:04:00.592Z,71.06
2022-10-18T15:06:33.268Z,70.84
2022-10-18T15:09:05.958Z,70.96
2022-10-18T15:11:36.307Z,71.03
2022-10-18T15:14:14.413Z,70.84
2022-10-18T15:16:45.527Z,71.00
2022-10-18T15:19:15.566Z,70.70
2022-10-18T15:22:31.232Z,70.13
2022-10-18T15:25:18.364Z,71.15
2022-10-18T15:27:52.497Z,71.06
2022-10-18T15:30:39.629Z,70.80
2022-10-18T15:33:22.322Z,70.81
2022-10-18T15:35:53.847Z,71.47
2022-10-18T15:38:32.087Z,71.26
2022-10-18T15:41:03.709Z,71.16
2022-10-18T15:43:35.318Z,71.15
2022-10-18T15:46:07.074Z,71.02
2022-10-18T15:48:40.371Z,71.17
2022-10-18T15:51:37.899Z,70.87
2022-10-18T15:54:18.202Z,70.90
2022-10-18T15:56:48.736Z,71.37
2022-10-18T15:59:31.104Z,71.44
2022-10-18T16:02:01.908Z,71.54
2022-10-18T16:04:33.256Z,71.60
2022-10-18T16:07:03.436Z,71.64
2022-10-18T16:09:33.949Z,71.25
2022-10-18T16:12:04.914Z,71.39
2022-10-18T16:14:36.291Z,71.31
2022-10-18T16:17:08.158Z,71.31
2022-10-18T16:19:38.276Z,71.22
2022-10-18T16:24:48.293Z,71.02
2022-10-18T16:27:19.343Z,71.01
2022-10-18T16:29:49.556Z,70.97
2022-10-18T16:32:19.749Z,71.09
2022-10-18T16:34:49.825Z,71.36
2022-10-18T16:37:19.883Z,71.47
2022-10-18T16:39:50.014Z,72.04
2022-10-18T16:42:20.242Z,72.34
2022-10-18T16:44:50.406Z,72.16
2022-10-18T16:47:21.292Z,71.93
2022-10-18T16:49:51.363Z,72.26
2022-10-18T16:52:21.468Z,72.50
2022-10-18T16:54:51.597Z,72.55
2022-10-18T16:57:21.797Z,72.29
2022-10-18T16:59:52.011Z,72.31
2022-10-18T17:02:22.143Z,72.62
2022-10-18T17:04:52.327Z,72.85
2022-10-18T17:07:25.076Z,72.90
2022-10-18T17:09:55.205Z,72.77
2022-10-18T17:12:25.322Z,72.61
2022-10-18T17:14:55.471Z,72.54
2022-10-18T17:17:25.613Z,72.47
2022-10-18T17:19:56.196Z,72.29
2022-10-18T17:22:27.544Z,72.50
2022-10-18T17:24:57.890Z,72.46
2022-10-18T17:27:28.336Z,72.43
2022-10-18T17:29:58.550Z,72.58
2022-10-18T17:32:29.447Z,72.70
2022-10-18T17:34:59.671Z,72.66
2022-10-18T17:37:29.831Z,72.30
2022-10-18T17:40:00.186Z,72.28
2022-10-18T17:42:30.459Z,72.10
2022-10-18T17:45:01.383Z,72.42
2022-10-18T17:47:31.983Z,72.03
2022-10-18T17:50:02.306Z,71.98
2022-10-18T17:52:32.577Z,71.52
2022-10-18T17:55:02.820Z,71.44
2022-10-18T17:57:33.276Z,71.39
2022-10-18T18:00:11.981Z,71.10
2022-10-18T18:02:42.740Z,71.23
2022-10-18T18:05:13.633Z,71.55
2022-10-18T18:07:44.326Z,71.19
2022-10-18T18:10:19.996Z,71.41
2022-10-18T18:12:50.359Z,71.35
2022-10-18T18:15:20.541Z,71.27
2022-10-18T18:17:57.251Z,70.99
2022-10-18T18:20:28.045Z,71.01
2022-10-18T18:22:58.254Z,71.16
2022-10-18T18:25:28.407Z,71.07
2022-10-18T18:27:59.915Z,70.87
2022-10-18T18:30:31.592Z,70.69
2022-10-18T18:33:01.838Z,70.50
2022-10-18T18:35:32.071Z,70.71
2022-10-18T18:38:05.169Z,70.62
2022-10-18T18:40:35.559Z,70.79
2022-10-18T18:43:12.565Z,70.42
2022-10-18T18:45:52.527Z,70.41
2022-10-18T18:48:22.764Z,70.48
2022-10-18T18:50:53.082Z,70.38
2022-10-18T18:53:27.222Z,70.39
2022-10-18T18:56:05.899Z,70.19
2022-10-18T18:58:38.203Z,70.40
2022-10-18T19:01:14.986Z,70.35
2022-10-18T19:03:47.531Z,70.35
2022-10-18T19:06:22.571Z,70.56
2022-10-18T19:08:54.907Z,70.64
2022-10-18T19:11:24.995Z,70.56
2022-10-18T19:13:55.303Z,70.81
2022-10-18T19:16:35.260Z,70.82
2022-10-18T19:19:12.679Z,70.56
2022-10-18T19:22:00.865Z,70.71
2022-10-18T19:24:32.241Z,71.10
2022-10-18T19:27:12.703Z,71.11
2022-10-18T19:29:44.024Z,71.01
2022-10-18T19:32:17.075Z,71.04
2022-10-18T19:34:47.349Z,70.94
2022-10-18T19:37:17.577Z,70.91
2022-10-18T19:39:47.790Z,70.93
2022-10-18T19:42:21.112Z,71.06
2022-10-18T19:44:56.796Z,71.13
2022-10-18T19:47:26.947Z,71.15
2022-10-18T19:49:57.282Z,71.03
2022-10-18T19:52:28.566Z,71.28
2022-10-18T19:54:58.852Z,70.98
2022-10-18T19:57:29.387Z,70.98
2022-10-18T20:00:00.731Z,71.08
2022-10-18T20:02:31.682Z,71.17
2022-10-18T20:05:03.910Z,71.08
2022-10-18T20:07:34.520Z,71.02
2022-10-18T20:10:04.918Z,71.04
2022-10-18T20:12:36.689Z,70.96
2022-10-18T20:15:08.977Z,71.05
2022-10-18T20:17:39.787Z,71.06
2022-10-18T20:20:10.605Z,71.15
2022-10-18T20:22:40.981Z,71.33
2022-10-18T20:25:11.168Z,71.28
2022-10-18T20:27:41.459Z,71.19
2022-10-18T20:30:15.743Z,70.99
2022-10-18T20:32:45.914Z,71.13
2022-10-18T20:35:16.485Z,71.13
2022-10-18T20:37:47.162Z,71.06
2022-10-18T20:40:17.437Z,71.19
2022-10-18T20:42:47.563Z,71.13
2022-10-18T20:45:17.679Z,71.12
2022-10-18T20:47:47.951Z,71.21
2022-10-18T20:50:18.171Z,71.27
2022-10-18T20:52:51.374Z,71.31
2022-10-18T20:55:21.535Z,71.15
2022-10-18T20:57:51.762Z,71.22
2022-10-18T21:00:21.851Z,71.33
2022-10-18T21:02:52.024Z,71.09
2022-10-18T21:05:22.060Z,71.28
2022-10-18T21:07:52.367Z,71.30
2022-10-18T21:10:24.534Z,71.13
2022-10-18T21:12:54.646Z,71.28
2022-10-18T21:15:24.832Z,71.38
2022-10-18T21:17:55.074Z,71.28
2022-10-18T21:20:25.590Z,71.50
2022-10-18T21:22:57.505Z,71.68
2022-10-18T21:25:27.775Z,71.82
2022-10-18T21:27:57.917Z,71.66
2022-10-18T21:30:28.128Z,71.85
2022-10-18T21:32:58.717Z,71.92
2022-10-18T21:35:29.011Z,71.86
2022-10-18T21:37:59.163Z,71.99
2022-10-18T21:40:29.322Z,71.77
2022-10-18T21:42:59.454Z,71.82
2022-10-18T21:45:29.571Z,71.33
2022-10-18T21:47:59.686Z,71.44
2022-10-18T21:50:29.819Z,71.67
2022-10-18T21:53:00.592Z,71.48
2022-10-18T21:55:30.743Z,71.63
2022-10-18T21:58:00.825Z,71.64
2022-10-18T22:00:31.163Z,71.77
2022-10-18T22:03:08.105Z,71.98
2022-10-18T22:05:38.497Z,72.16
2022-10-18T22:08:08.629Z,71.94
2022-10-18T22:10:38.824Z,71.88
2022-10-18T22:13:08.959Z,71.60
2022-10-18T22:15:39.153Z,71.64
2022-10-18T22:18:09.357Z,71.71
2022-10-18T22:20:39.566Z,71.70
2022-10-18T22:23:12.656Z,71.91
2022-10-18T22:25:43.374Z,71.68
2022-10-18T22:28:13.661Z,72.01
2022-10-18T22:30:44.184Z,72.03
2022-10-18T22:33:14.300Z,72.03
2022-10-18T22:35:49.378Z,72.44
2022-10-18T22:38:19.514Z,72.48
2022-10-18T22:40:49.617Z,72.30
2022-10-18T22:43:19.714Z,72.32
2022-10-18T22:45:49.817Z,72.71
2022-10-18T22:48:20.055Z,72.75
2022-10-18T22:50:50.184Z,72.66
2022-10-18T22:53:20.536Z,72.60
2022-10-18T22:55:51.554Z,72.88
2022-10-18T22:58:21.696Z,72.75
2022-10-18T23:00:51.763Z,72.93
2022-10-18T23:03:21.975Z,73.02
2022-10-18T23:05:52.155Z,72.79
2022-10-18T23:08:22.630Z,72.89
2022-10-18T23:10:55.648Z,73.25
2022-10-18T23:13:27.215Z,73.04
2022-10-18T23:16:04.861Z,73.65
2022-10-18T23:18:35.611Z,73.42
2022-10-18T23:21:11.775Z,73.55
2022-10-18T23:23:42.854Z,73.67
2022-10-18T23:26:19.209Z,73.71
2022-10-18T23:28:51.246Z,73.78
2022-10-18T23:31:27.539Z,73.83
2022-10-18T23:34:04.118Z,74.39
2022-10-18T23:36:34.822Z,75.17
2022-10-18T23:39:06.334Z,79.64
2022-10-18T23:41:36.532Z,80.82
2022-10-18T23:44:09.117Z,81.21
2022-10-18T23:46:39.271Z,81.03
2022-10-18T23:49:09.395Z,81.42
2022-10-18T23:51:39.633Z,80.67
2022-10-18T23:54:09.788Z,81.02
2022-10-18T23:56:39.860Z,85.18
2022-10-18T23:59:09.993Z,100.00
